< Typhoon 200423 2004 Season Typhoon 200425 >
Typhoon 200424 (NOCK-TEN)
General InformationTrack Information on Google MapsDetailed Wind InformationAccess Analytics MapList of All Images || NewsDisaster Info.WeblogTrackbackTyphoon FrontResourceGoogle EarthGE AnimationAtom FeedGeoJSON
Detalied Best Track (Time Zone = UTC)
Year Month Day Hour Lat. Long. Pressure (hPa) Wind (kt) Class Image Chart
2004 10 14 00 10.5 164.2 1008 0 2 Image Chart
2004 10 14 06 11.4 163.6 1004 0 2 Image Chart
2004 10 14 12 11.7 162.0 1002 0 2 Image Chart
2004 10 14 18 11.7 161.5 1002 0 2 Image Chart
2004 10 15 00 11.7 160.5 1002 0 2 Image Chart
2004 10 15 06 11.7 160.0 1002 0 2 Image Chart
2004 10 15 12 11.7 159.4 1002 0 2 Image Chart
2004 10 15 18 11.7 158.5 1000 0 2 Image Chart
2004 10 16 00 11.5 157.5 1000 0 2 Image Chart
2004 10 16 06 11.3 156.4 1000 0 2 Image Chart
2004 10 16 12 10.9 155.1 996 35 3 Image Chart
2004 10 16 18 10.6 154.5 990 45 3 Image Chart
2004 10 17 00 10.5 154.2 990 45 3 Image Chart
2004 10 17 06 10.6 153.9 990 45 3 Image Chart
2004 10 17 12 10.6 153.3 990 45 3 Image Chart
2004 10 17 18 10.6 152.8 990 45 3 Image Chart
2004 10 18 00 10.4 152.4 980 50 4 Image Chart
2004 10 18 06 10.2 151.8 970 65 5 Image Chart
2004 10 18 12 10.2 151.1 965 70 5 Image Chart
2004 10 18 18 10.1 149.9 965 70 5 Image Chart
2004 10 19 00 9.8 148.8 965 70 5 Image Chart
2004 10 19 06 9.4 148.1 965 70 5 Image Chart
2004 10 19 12 9.7 147.2 965 70 5 Image Chart
2004 10 19 18 10.2 146.0 965 70 5 Image Chart
2004 10 20 00 10.7 145.1 955 75 5 Image Chart
2004 10 20 06 11.3 144.0 955 75 5 Image Chart
2004 10 20 12 11.8 142.9 955 75 5 Image Chart
2004 10 20 18 12.4 141.9 955 75 5 Image Chart
2004 10 21 00 13.3 140.5 960 75 5 Image Chart
2004 10 21 06 13.8 139.1 960 70 5 Image Chart
2004 10 21 12 13.9 138.3 960 70 5 Image Chart
2004 10 21 18 14.5 137.3 960 70 5 Image Chart
2004 10 22 00 15.2 136.6 960 70 5 Image Chart
2004 10 22 06 15.8 135.8 960 75 5 Image Chart
2004 10 22 12 16.4 134.8 955 75 5 Image Chart
2004 10 22 18 16.9 133.8 955 75 5 Image Chart
2004 10 23 00 17.4 132.3 945 85 5 Image Chart
2004 10 23 06 18.0 130.9 945 85 5 Image Chart
2004 10 23 12 18.7 129.3 945 85 5 Image Chart
2004 10 23 18 19.4 127.7 945 85 5 Image Chart
2004 10 23 21 19.7 126.8 945 85 5 Image Chart
2004 10 24 00 20.0 126.0 945 85 5 Image Chart
2004 10 24 03 20.4 125.2 945 85 5 Image Chart
2004 10 24 06 20.8 124.5 945 85 5 Image Chart
2004 10 24 09 21.4 123.8 945 85 5 Image Chart
2004 10 24 12 21.8 123.2 945 80 5 Image Chart
2004 10 24 15 22.3 122.8 945 80 5 Image Chart
2004 10 24 18 22.8 122.4 950 80 5 Image Chart
2004 10 24 21 23.4 122.3 960 70 5 Image Chart
2004 10 25 00 24.2 122.1 970 70 5 Image Chart
2004 10 25 03 24.9 122.0 975 65 5 Image Chart
2004 10 25 06 25.3 121.9 985 60 4 Image Chart
2004 10 25 09 25.6 121.9 990 60 4 Image Chart
2004 10 25 12 26.1 122.3 992 55 4 Image Chart
2004 10 25 15 27.0 123.0 992 55 4 Image Chart
2004 10 25 18 27.6 123.7 994 50 4 Image Chart
2004 10 25 21 27.9 124.3 996 50 4 Image Chart
2004 10 26 00 28.5 126.0 996 45 3 Image Chart
2004 10 26 06 29.3 130.3 1002 0 6 Image Chart
2004 10 26 12 30.3 134.4 1004 0 6 Image Chart
2004 10 26 18 30.6 138.5 1006 0 6 Image Chart
2004 10 27 00 31.5 141.9 1010 0 6 Image Chart
Japan Meteorological Agency Best Track Data | Correction Date : 2006-01-18
< Typhoon 200423 2004 Season Typhoon 200425 >

Help